Time;durP1;ratioP1;P1;durP2;ratioP2;P2;SDS_P1;SDS_P2;PMS_P1;PMS_P2;Temp;Humidity;BMP_temperature;BMP_pressure;BME280_temperature;BME280_humidity;BME280_pressure;Samples;Min_cycle;Max_cycle;Signal;HPM_P1;HPM_P2
2021/01/05 00:00:34;;;;;;;58.50;54.30;;;;;;;15.27;42.66;99407.25;4425473;32;33421;-88
2021/01/05 00:03:03;;;;;;;57.90;53.90;;;;;;;14.21;45.00;99408.47;4427242;32;35580;-88
2021/01/05 00:05:43;;;;;;;57.47;53.35;;;;;;;13.93;46.25;99411.66;4485209;32;381979;-83
2021/01/05 00:08:10;;;;;;;56.65;52.65;;;;;;;13.67;47.02;99411.19;4455356;32;31432;-84
2021/01/05 00:10:37;;;;;;;57.50;53.42;;;;;;;13.86;46.32;99409.31;4482253;32;33730;-83
2021/01/05 00:13:05;;;;;;;57.53;53.60;;;;;;;14.56;44.55;99410.19;4468138;32;33871;-83
2021/01/05 00:15:32;;;;;;;56.97;53.10;;;;;;;14.53;44.58;99403.31;4455256;32;33902;-84
2021/01/05 00:17:59;;;;;;;56.67;52.75;;;;;;;14.90;43.51;99411.88;4455622;32;33311;-84
2021/01/05 00:20:32;;;;;;;56.88;52.75;;;;;;;15.19;42.87;99402.41;4468252;32;33619;-83
2021/01/05 00:23:14;;;;;;;58.30;54.10;;;;;;;15.17;42.86;99403.44;4445850;32;34753;-84
2021/01/05 00:25:42;;;;;;;57.47;53.67;;;;;;;15.55;41.99;99403.06;4468068;32;33613;-84
2021/01/05 00:28:09;;;;;;;57.40;53.35;;;;;;;15.83;41.26;99405.00;4467861;32;34296;-83
2021/01/05 00:30:37;;;;;;;56.97;52.88;;;;;;;14.98;43.06;99406.22;4463847;32;33850;-83
2021/01/05 00:33:06;;;;;;;56.92;53.08;;;;;;;15.81;41.35;99403.41;4438041;32;33631;-84
2021/01/05 00:35:37;;;;;;;57.33;53.22;;;;;;;15.11;42.62;99414.28;4437472;32;35003;-82
2021/01/05 00:38:06;;;;;;;56.72;52.83;;;;;;;15.63;41.53;99410.50;4437805;32;33827;-83
2021/01/05 00:40:33;;;;;;;57.05;52.90;;;;;;;15.89;40.95;99413.44;4437671;32;34977;-83
2021/01/05 00:43:00;;;;;;;58.03;54.03;;;;;;;15.93;40.86;99407.94;4437804;32;33121;-84
2021/01/05 00:45:35;;;;;;;56.35;52.55;;;;;;;16.06;40.41;99413.31;4437658;32;34684;-83
2021/01/05 00:48:04;;;;;;;57.35;53.20;;;;;;;16.35;39.68;99411.56;4437762;32;34134;-84
2021/01/05 00:50:34;;;;;;;56.97;52.88;;;;;;;16.03;40.33;99409.09;4451023;32;35272;-84
2021/01/05 00:53:01;;;;;;;56.78;52.88;;;;;;;16.09;40.26;99407.88;4425074;32;34936;-84
2021/01/05 00:55:28;;;;;;;55.70;51.90;;;;;;;16.32;39.83;99410.91;4437832;32;33789;-84
2021/01/05 00:57:56;;;;;;;56.80;52.83;;;;;;;16.42;39.47;99413.81;4437508;32;34500;-83
2021/01/05 01:00:27;;;;;;;56.85;52.92;;;;;;;16.40;39.54;99420.97;4450652;32;33839;-85
2021/01/05 01:02:54;;;;;;;56.10;52.30;;;;;;;16.00;40.46;99417.13;4437596;32;34288;-85
2021/01/05 01:05:23;;;;;;;56.75;52.65;;;;;;;16.52;39.27;99421.03;4438638;32;33301;-84
2021/01/05 01:07:50;;;;;;;57.72;53.80;;;;;;;16.29;39.58;99430.34;4450637;32;33249;-85
2021/01/05 01:10:19;;;;;;;56.25;52.53;;;;;;;16.34;39.53;99425.66;4451103;32;34365;-83
2021/01/05 01:12:47;;;;;;;55.92;52.08;;;;;;;16.45;39.31;99422.37;4469558;32;34736;-82
2021/01/05 01:15:15;;;;;;;56.35;52.65;;;;;;;16.44;39.32;99430.34;4454300;32;33543;-82
2021/01/05 01:17:42;;;;;;;56.13;52.25;;;;;;;16.45;39.21;99418.91;4433326;32;33650;-83
2021/01/05 01:20:11;;;;;;;54.85;51.08;;;;;;;16.62;38.88;99420.50;4428468;32;34099;-84
2021/01/05 01:22:38;;;;;;;56.08;52.33;;;;;;;16.75;38.66;99421.44;4439932;32;34292;-83
2021/01/05 01:25:06;;;;;;;55.90;52.25;;;;;;;16.69;38.78;99414.75;4440386;32;33347;-84
2021/01/05 01:27:34;;;;;;;56.10;52.20;;;;;;;16.45;39.33;99411.03;4440603;32;33623;-84
2021/01/05 01:30:03;;;;;;;54.60;51.10;;;;;;;16.74;38.64;99414.50;4414484;32;34383;-85
2021/01/05 01:32:33;;;;;;;54.13;50.50;;;;;;;16.15;39.96;99409.28;4440567;32;33545;-84
2021/01/05 01:35:03;;;;;;;54.45;51.05;;;;;;;16.35;39.43;99408.09;4440246;32;33606;-83
2021/01/05 01:37:31;;;;;;;54.78;51.13;;;;;;;16.61;38.79;99408.31;4440315;32;32619;-83
2021/01/05 01:39:59;;;;;;;53.58;50.17;;;;;;;16.79;38.23;99408.94;4439979;32;34607;-83
2021/01/05 01:42:27;;;;;;;55.15;51.65;;;;;;;16.60;38.49;99404.81;4439982;32;34057;-83
2021/01/05 01:44:54;;;;;;;55.35;51.85;;;;;;;16.77;38.28;99400.31;4440244;32;33659;-83
2021/01/05 01:47:37;;;;;;;55.47;51.80;;;;;;;16.67;38.47;99397.38;4414524;32;33671;-83
2021/01/05 01:50:10;;;;;;;55.15;51.47;;;;;;;16.33;38.98;99400.28;4440127;32;33621;-84
2021/01/05 01:53:09;;;;;;;54.70;51.10;;;;;;;16.52;38.77;99391.28;4440162;32;34743;-84
2021/01/05 01:56:16;;;;;;;54.13;50.55;;;;;;;15.97;39.78;99391.03;4439831;32;33531;-84
2021/01/05 01:58:56;;;;;;;54.65;50.95;;;;;;;14.71;42.55;99387.59;4441346;32;33122;-84
2021/01/05 02:01:34;;;;;;;54.60;51.00;;;;;;;15.24;41.52;99382.97;4454377;32;33747;-83
2021/01/05 02:04:01;;;;;;;55.97;52.25;;;;;;;15.72;40.49;99375.84;4426726;32;36235;-84
2021/01/05 02:06:45;;;;;;;55.92;52.08;;;;;;;15.39;41.00;99384.72;4439996;32;32853;-85
2021/01/05 02:09:47;;;;;;;54.85;51.30;;;;;;;15.76;40.20;99374.72;4426860;32;34095;-84
2021/01/05 02:12:19;;;;;;;56.22;52.42;;;;;;;16.02;39.70;99370.59;4375900;32;33356;-85
2021/01/05 02:14:52;;;;;;;55.90;52.22;;;;;;;15.85;40.11;99374.22;4454048;32;34442;-84
2021/01/05 02:17:48;;;;;;;55.47;51.78;;;;;;;16.10;39.35;99370.16;4439783;32;33584;-83
2021/01/05 02:20:23;;;;;;;55.40;51.70;;;;;;;16.16;39.30;99364.50;4440249;32;33173;-83
2021/01/05 02:23:03;;;;;;;55.78;52.05;;;;;;;16.42;38.61;99362.09;4414275;32;34593;-82
2021/01/05 02:25:49;;;;;;;55.53;51.97;;;;;;;16.09;39.33;99360.56;4426846;32;34255;-84
2021/01/05 02:28:17;;;;;;;55.63;51.70;;;;;;;15.96;39.67;99352.56;4452663;32;33518;-84
2021/01/05 02:30:49;;;;;;;56.13;52.30;;;;;;;15.65;40.33;99345.63;4430827;32;32942;-82
2021/01/05 02:33:55;;;;;;;56.60;52.50;;;;;;;15.72;40.28;99346.94;4432755;32;34426;-82
2021/01/05 02:37:00;;;;;;;56.20;52.47;;;;;;;15.45;40.83;99345.00;4379075;32;34258;-83
2021/01/05 02:40:00;;;;;;;55.83;52.03;;;;;;;15.41;41.00;99337.37;4389620;32;34156;-83
2021/01/05 02:43:00;;;;;;;56.67;52.78;;;;;;;15.23;41.38;99334.88;4390112;32;33352;-83
2021/01/05 02:46:07;;;;;;;56.80;52.72;;;;;;;15.65;40.41;99329.87;4389682;32;34436;-83
2021/01/05 02:49:11;;;;;;;58.13;53.83;;;;;;;15.51;40.81;99328.03;4350417;32;34182;-83
2021/01/05 02:52:30;;;;;;;57.22;53.17;;;;;;;13.60;45.26;99333.84;4365616;32;34420;-84
2021/01/05 02:55:36;;;;;;;56.78;52.75;;;;;;;12.73;47.72;99335.34;4373678;32;33114;-84
2021/01/05 02:58:33;;;;;;;58.28;54.03;;;;;;;12.96;47.38;99331.66;4358738;32;34809;-84
2021/01/05 03:01:53;;;;;;;58.40;53.80;;;;;;;12.21;49.55;99332.50;4363671;32;33715;-83
2021/01/05 03:04:49;;;;;;;57.95;53.65;;;;;;;12.91;47.72;99320.56;4363138;32;33568;-83
2021/01/05 03:07:45;;;;;;;56.95;52.90;;;;;;;13.64;46.01;99319.69;4485758;32;300816;-84
2021/01/05 03:10:57;;;;;;;58.60;53.92;;;;;;;13.98;44.92;99316.19;4455418;32;33005;-84
2021/01/05 03:14:17;;;;;;;57.30;53.10;;;;;;;14.15;44.49;99309.25;4428047;32;34952;-84
2021/01/05 03:17:12;;;;;;;58.60;54.25;;;;;;;13.12;47.04;99316.09;4417466;32;34714;-84
2021/01/05 03:20:12;;;;;;;58.90;54.65;;;;;;;13.16;47.07;99317.63;4444566;32;34356;-83
2021/01/05 03:23:00;;;;;;;59.33;54.92;;;;;;;13.81;45.26;99317.09;4444337;32;35669;-83
2021/01/05 03:25:53;;;;;;;59.55;55.15;;;;;;;12.09;49.76;99316.44;4411531;32;33520;-84
2021/01/05 03:28:35;;;;;;;59.60;55.03;;;;;;;13.64;45.91;99315.31;4418551;32;35013;-84
2021/01/05 03:31:35;;;;;;;59.45;54.97;;;;;;;13.60;45.92;99303.31;4400419;32;33353;-84
2021/01/05 03:34:20;;;;;;;61.08;56.15;;;;;;;14.11;44.55;99302.47;4433068;32;33228;-84
2021/01/05 03:37:08;;;;;;;62.92;57.92;;;;;;;14.13;44.70;99305.84;4416958;32;33877;-85
2021/01/05 03:39:53;;;;;;;62.92;57.88;;;;;;;13.66;45.87;99304.75;4429735;32;34600;-85
2021/01/05 03:42:39;;;;;;;61.95;57.17;;;;;;;14.25;44.44;99299.13;4440719;32;32169;-84
2021/01/05 03:45:28;;;;;;;63.17;58.22;;;;;;;14.69;43.21;99302.00;4422326;32;33306;-83
2021/01/05 03:48:10;;;;;;;64.28;58.97;;;;;;;14.14;44.39;99300.53;4399241;32;35032;-84
2021/01/05 03:50:56;;;;;;;63.38;58.13;;;;;;;14.82;42.86;99310.03;4439590;32;33361;-84
2021/01/05 03:53:39;;;;;;;61.72;56.58;;;;;;;14.61;43.18;99298.91;4413974;32;34896;-85
2021/01/05 03:56:30;;;;;;;61.90;57.10;;;;;;;14.56;43.26;99293.06;4427624;32;34301;-84
2021/01/05 03:59:21;;;;;;;62.70;57.80;;;;;;;14.10;44.39;99298.16;4427960;32;33415;-84
2021/01/05 04:02:03;;;;;;;62.58;57.60;;;;;;;14.26;44.01;99295.56;4398168;32;34423;-85
2021/01/05 04:04:30;;;;;;;64.07;58.85;;;;;;;14.42;43.72;99298.22;4437312;32;32840;-84
2021/01/05 04:06:57;;;;;;;62.67;57.65;;;;;;;14.63;43.27;99291.84;4437068;32;34892;-84
2021/01/05 04:09:24;;;;;;;64.97;59.35;;;;;;;14.09;44.45;99296.47;4450189;32;34350;-83
2021/01/05 04:11:52;;;;;;;62.80;57.62;;;;;;;14.40;43.84;99286.97;4450360;32;34770;-85
2021/01/05 04:14:19;;;;;;;63.30;57.97;;;;;;;14.32;44.06;99290.00;4464596;32;34099;-86
2021/01/05 04:16:47;;;;;;;64.12;58.72;;;;;;;14.01;44.73;99289.88;4450000;32;34274;-85
2021/01/05 04:19:15;;;;;;;64.22;59.00;;;;;;;14.57;43.50;99288.66;4426694;32;35687;-84
2021/01/05 04:21:42;;;;;;;64.05;58.72;;;;;;;14.14;44.34;99291.81;4439751;32;35624;-85
2021/01/05 04:24:10;;;;;;;63.45;58.08;;;;;;;13.90;45.11;99291.34;4439459;32;33342;-85
2021/01/05 04:26:37;;;;;;;63.35;58.05;;;;;;;14.60;43.38;99286.72;4440162;32;34317;-84
2021/01/05 04:29:04;;;;;;;63.10;57.83;;;;;;;14.22;44.07;99281.78;4439875;32;34632;-84
2021/01/05 04:31:42;;;;;;;64.43;58.42;;;;;;;14.82;42.72;99293.44;4439841;32;34755;-84
2021/01/05 04:34:11;;;;;;;64.72;59.28;;;;;;;13.97;44.65;99297.94;4439972;32;33771;-85
2021/01/05 04:36:39;;;;;;;63.95;58.40;;;;;;;13.44;46.05;99299.75;4426878;32;34650;-84
2021/01/05 04:39:07;;;;;;;62.65;57.53;;;;;;;13.63;45.52;99302.31;4439819;32;34495;-84
2021/01/05 04:42:01;;;;;;;62.13;57.00;;;;;;;13.72;45.38;99304.47;4440000;32;34963;-84
2021/01/05 04:44:31;;;;;;;63.85;58.50;;;;;;;13.77;45.33;99305.03;4424403;32;33650;-84
2021/01/05 04:47:17;;;;;;;63.87;58.20;;;;;;;13.90;45.17;99305.28;4439813;32;34028;-84
2021/01/05 04:50:06;;;;;;;63.42;58.13;;;;;;;13.60;46.15;99311.16;4452315;32;34604;-85
2021/01/05 04:52:39;;;;;;;64.30;58.83;;;;;;;12.88;47.91;99319.88;4439839;32;34569;-84
2021/01/05 04:55:17;;;;;;;64.75;58.97;;;;;;;13.60;46.24;99321.63;4439955;32;33270;-85
2021/01/05 04:57:48;;;;;;;63.00;57.45;;;;;;;13.97;45.01;99316.28;4439631;32;34719;-84
2021/01/05 05:00:23;;;;;;;62.58;57.17;;;;;;;13.15;47.20;99325.56;4440206;32;34744;-83
2021/01/05 05:03:01;;;;;;;64.12;58.53;;;;;;;12.58;48.75;99323.84;4447191;32;34110;-83
2021/01/05 05:05:40;;;;;;;64.65;59.08;;;;;;;12.60;49.04;99329.81;4439692;32;34305;-85
2021/01/05 05:08:13;;;;;;;63.05;57.67;;;;;;;13.42;46.74;99326.00;4439524;32;34213;-85
2021/01/05 05:10:59;;;;;;;64.47;59.08;;;;;;;13.06;47.65;99324.22;4439350;32;34720;-83
2021/01/05 05:13:31;;;;;;;64.15;58.45;;;;;;;13.70;45.92;99319.38;4452798;32;35497;-84
2021/01/05 05:16:19;;;;;;;64.25;58.60;;;;;;;13.87;45.48;99326.38;4426942;32;34504;-85
2021/01/05 05:18:57;;;;;;;63.08;57.45;;;;;;;13.89;45.03;99324.53;4453717;32;33399;-84
2021/01/05 05:21:29;;;;;;;64.87;59.28;;;;;;;14.09;44.63;99318.25;4426989;32;33664;-83
2021/01/05 05:24:24;;;;;;;63.30;57.97;;;;;;;13.62;45.75;99324.16;4439826;32;33918;-84
2021/01/05 05:26:56;;;;;;;62.95;57.47;;;;;;;14.10;44.36;99319.12;4439892;32;33647;-85
2021/01/05 05:29:44;;;;;;;63.87;58.28;;;;;;;14.10;44.29;99324.34;4438657;32;32984;-84
2021/01/05 05:32:22;;;;;;;63.75;58.17;;;;;;;14.41;43.44;99325.34;4439502;32;34789;-85
2021/01/05 05:34:57;;;;;;;63.60;58.20;;;;;;;14.21;43.92;99324.63;4426445;32;34122;-83
2021/01/05 05:37:46;;;;;;;63.60;58.15;;;;;;;13.76;44.69;99331.31;4439330;32;33016;-84
2021/01/05 05:40:16;;;;;;;62.58;57.22;;;;;;;13.88;44.64;99329.84;4439795;32;33759;-84
2021/01/05 05:43:15;;;;;;;62.67;57.25;;;;;;;14.16;43.71;99324.88;4439445;32;35575;-85
2021/01/05 05:45:47;;;;;;;62.67;57.53;;;;;;;14.36;43.10;99329.06;4439792;32;33722;-84
2021/01/05 05:48:31;;;;;;;62.85;57.60;;;;;;;13.73;44.50;99328.84;4439483;32;33603;-85
2021/01/05 05:51:07;;;;;;;62.47;57.20;;;;;;;14.02;43.82;99325.59;4426667;32;34655;-84
2021/01/05 05:53:53;;;;;;;61.90;56.97;;;;;;;13.75;44.41;99332.22;4427200;32;33708;-85
2021/01/05 05:56:39;;;;;;;61.95;56.45;;;;;;;13.38;44.96;99334.09;4440450;32;33427;-84
2021/01/05 05:59:09;;;;;;;62.70;57.25;;;;;;;13.11;45.92;99343.16;4440245;32;34119;-85
2021/01/05 06:01:39;;;;;;;62.28;57.15;;;;;;;12.67;47.43;99343.47;4440545;32;34062;-85
2021/01/05 06:04:07;;;;;;;63.15;57.58;;;;;;;13.07;45.95;99345.97;4427432;32;33923;-84
2021/01/05 06:06:38;;;;;;;62.78;57.03;;;;;;;13.23;45.70;99339.13;4454909;32;33844;-85
2021/01/05 06:09:05;;;;;;;63.42;57.80;;;;;;;13.76;44.42;99344.41;4443182;32;33607;-83
2021/01/05 06:11:33;;;;;;;63.78;58.22;;;;;;;12.73;46.51;99355.41;4445887;32;32943;-83
2021/01/05 06:14:01;;;;;;;63.70;58.45;;;;;;;12.21;48.32;99346.37;4435211;32;34447;-83
2021/01/05 06:16:32;;;;;;;66.22;60.53;;;;;;;12.31;48.02;99346.81;4441506;32;33961;-85
2021/01/05 06:19:00;;;;;;;64.15;58.55;;;;;;;12.36;47.59;99352.69;4425827;32;35006;-85
2021/01/05 06:21:29;;;;;;;64.75;59.15;;;;;;;13.02;46.10;99357.50;4427721;32;32712;-85
2021/01/05 06:23:56;;;;;;;63.58;58.08;;;;;;;12.16;48.13;99353.56;4440214;32;33912;-85
2021/01/05 06:26:24;;;;;;;64.15;58.90;;;;;;;12.86;46.18;99360.00;4439380;32;33769;-86
2021/01/05 06:28:51;;;;;;;63.90;58.50;;;;;;;12.68;46.82;99361.72;4440077;32;33465;-86
2021/01/05 06:31:18;;;;;;;64.57;59.15;;;;;;;13.22;45.10;99370.59;4427530;32;33286;-84
2021/01/05 06:33:46;;;;;;;62.17;56.95;;;;;;;13.28;44.93;99372.88;4426819;32;36218;-83
2021/01/05 06:36:13;;;;;;;64.65;58.58;;;;;;;12.82;46.18;99368.06;4438561;32;34191;-82
2021/01/05 06:38:46;;;;;;;66.35;60.40;;;;;;;12.56;46.91;99377.09;4452790;32;33495;-80
2021/01/05 06:41:17;;;;;;;65.00;59.13;;;;;;;11.88;48.84;99374.78;4438088;32;33842;-82
2021/01/05 06:43:49;;;;;;;63.92;58.60;;;;;;;12.90;46.21;99372.94;4438726;32;33741;-82
2021/01/05 06:46:17;;;;;;;63.25;57.95;;;;;;;12.36;47.55;99378.81;4439941;32;33867;-82
2021/01/05 06:48:44;;;;;;;64.37;58.58;;;;;;;11.55;49.58;99373.47;4439326;32;34317;-83
2021/01/05 06:51:11;;;;;;;63.33;57.78;;;;;;;11.26;50.52;99379.88;4438515;32;33123;-81
2021/01/05 06:53:38;;;;;;;63.38;57.83;;;;;;;12.36;47.51;99379.69;4426037;32;34662;-80
2021/01/05 06:56:07;;;;;;;64.60;58.80;;;;;;;11.38;49.85;99386.34;4439023;32;33864;-81
2021/01/05 06:58:34;;;;;;;63.40;57.75;;;;;;;11.76;49.17;99383.97;4438747;32;33679;-81
2021/01/05 07:01:01;;;;;;;73.62;66.47;;;;;;;11.90;48.50;99383.37;4438477;32;31452;-82
2021/01/05 07:03:32;;;;;;;63.35;57.97;;;;;;;12.26;47.47;99385.34;4439285;32;33950;-82
2021/01/05 07:06:05;;;;;;;65.75;59.95;;;;;;;11.75;48.92;99380.47;4425499;32;35275;-81
2021/01/05 07:08:46;;;;;;;62.95;57.67;;;;;;;12.64;46.48;99386.28;4440568;32;34071;-82
2021/01/05 07:11:17;;;;;;;64.93;59.30;;;;;;;12.09;47.73;99386.94;4439680;32;34429;-82
2021/01/05 07:13:44;;;;;;;64.07;58.67;;;;;;;11.69;49.05;99384.22;4438558;32;35457;-82
2021/01/05 07:16:11;;;;;;;61.92;56.88;;;;;;;11.53;49.32;99390.97;4438723;32;34624;-80
2021/01/05 07:18:39;;;;;;;63.67;58.25;;;;;;;11.66;48.44;99386.94;4438862;32;33574;-81
2021/01/05 07:21:06;;;;;;;62.72;57.25;;;;;;;12.00;47.71;99396.00;4425501;32;33221;-81
2021/01/05 07:23:33;;;;;;;62.42;56.70;;;;;;;12.21;47.39;99397.78;4438944;32;35020;-81
2021/01/05 07:26:06;;;;;;;61.50;56.45;;;;;;;11.12;50.20;99403.91;4426579;32;33402;-82
2021/01/05 07:28:33;;;;;;;62.70;57.28;;;;;;;11.57;48.78;99405.59;4425300;32;34763;-81
2021/01/05 07:31:00;;;;;;;63.63;57.67;;;;;;;10.94;50.65;99421.94;4425368;32;34514;-82
2021/01/05 07:33:27;;;;;;;61.78;56.75;;;;;;;10.59;52.10;99415.41;4437823;32;33781;-81
2021/01/05 07:35:54;;;;;;;64.85;58.53;;;;;;;10.19;53.00;99417.62;4438061;32;33797;-81
2021/01/05 07:38:21;;;;;;;62.95;57.55;;;;;;;11.15;50.21;99419.41;4412582;32;34041;-82
2021/01/05 07:40:54;;;;;;;60.78;55.92;;;;;;;11.20;50.33;99412.25;4452091;32;34235;-82
2021/01/05 07:43:21;;;;;;;62.20;56.65;;;;;;;11.87;48.23;99410.44;4425694;32;33876;-80
2021/01/05 07:45:48;;;;;;;60.60;56.03;;;;;;;11.78;48.51;99416.06;4425229;32;35256;-80
2021/01/05 07:48:20;;;;;;;60.60;55.45;;;;;;;10.91;50.64;99413.38;4425090;32;33739;-81
2021/01/05 07:50:47;;;;;;;60.75;55.80;;;;;;;10.86;50.70;99419.63;4437800;32;33425;-83
2021/01/05 07:53:17;;;;;;;59.78;54.72;;;;;;;10.51;51.64;99413.91;4438406;32;35400;-81
2021/01/05 07:55:49;;;;;;;62.80;57.75;;;;;;;10.95;50.50;99421.00;4428355;32;34906;-81
2021/01/05 07:58:17;;;;;;;62.08;56.63;;;;;;;10.96;50.79;99427.94;4440203;32;34334;-82
2021/01/05 08:00:44;;;;;;;61.88;56.85;;;;;;;10.92;50.56;99420.28;4440232;32;34249;-81
2021/01/05 08:03:12;;;;;;;60.80;55.95;;;;;;;10.32;52.50;99423.28;4426984;32;35243;-81
2021/01/05 08:05:39;;;;;;;58.80;54.20;;;;;;;11.33;49.90;99421.31;4427332;32;33842;-81
2021/01/05 08:08:06;;;;;;;59.65;54.63;;;;;;;11.57;48.69;99418.62;4440183;32;33595;-80
2021/01/05 08:10:36;;;;;;;61.40;56.20;;;;;;;11.46;49.47;99426.03;4427795;32;32737;-81
2021/01/05 08:13:10;;;;;;;62.00;56.58;;;;;;;11.00;50.49;99426.91;4427828;32;33146;-81
2021/01/05 08:15:38;;;;;;;63.05;57.85;;;;;;;11.54;48.77;99434.41;4439879;32;33878;-82
2021/01/05 08:18:08;;;;;;;62.42;57.17;;;;;;;11.49;49.36;99428.53;4453911;32;33926;-82
2021/01/05 08:20:35;;;;;;;66.57;60.58;;;;;;;11.00;50.29;99429.50;4452711;32;33313;-81
2021/01/05 08:23:04;;;;;;;61.75;56.25;;;;;;;12.09;47.73;99425.28;4439589;32;34508;-82
2021/01/05 08:25:32;;;;;;;63.10;57.62;;;;;;;11.66;48.65;99430.44;4427699;32;33767;-83
2021/01/05 08:28:00;;;;;;;60.25;55.22;;;;;;;11.21;50.02;99427.00;4440282;32;33440;-81
2021/01/05 08:30:32;;;;;;;68.68;62.35;;;;;;;12.03;47.70;99431.56;4452395;32;34280;-82
2021/01/05 08:33:05;;;;;;;65.90;59.97;;;;;;;12.82;45.88;99433.44;4439609;32;33844;-81
2021/01/05 08:35:32;;;;;;;63.30;57.58;;;;;;;12.90;45.48;99433.91;4440282;32;33497;-82
2021/01/05 08:37:59;;;;;;;62.70;57.28;;;;;;;12.91;45.45;99440.84;4427293;32;33476;-82
2021/01/05 08:40:29;;;;;;;62.50;56.92;;;;;;;12.85;45.52;99441.94;4440868;32;34161;-81
2021/01/05 08:42:58;;;;;;;64.68;59.15;;;;;;;12.94;45.33;99442.47;4427714;32;33605;-82
2021/01/05 08:45:28;;;;;;;63.25;57.80;;;;;;;12.30;46.68;99444.41;4440398;32;34270;-81
2021/01/05 08:47:55;;;;;;;60.72;55.60;;;;;;;12.75;45.81;99451.16;4427436;32;33793;-80
2021/01/05 08:50:28;;;;;;;62.05;56.83;;;;;;;12.82;45.40;99454.34;4440248;32;34605;-82
2021/01/05 08:52:56;;;;;;;61.70;56.47;;;;;;;12.62;46.08;99461.28;4440237;32;33972;-81
2021/01/05 08:55:25;;;;;;;61.63;56.45;;;;;;;13.54;43.95;99463.25;4440300;32;34935;-80
2021/01/05 08:57:53;;;;;;;63.92;58.40;;;;;;;13.21;44.69;99469.13;4440691;32;33621;-82
2021/01/05 09:00:21;;;;;;;62.70;57.53;;;;;;;13.48;43.77;99469.66;4427435;32;33963;-81
2021/01/05 09:02:49;;;;;;;61.65;56.58;;;;;;;13.60;43.46;99465.59;4439799;32;34694;-81
2021/01/05 09:05:16;;;;;;;62.47;57.47;;;;;;;13.38;44.07;99476.22;4453998;32;33490;-82
2021/01/05 09:07:43;;;;;;;63.80;58.28;;;;;;;13.11;44.68;99473.06;4426943;32;33683;-82
2021/01/05 09:10:21;;;;;;;63.55;58.15;;;;;;;12.64;46.01;99466.44;4439512;32;34050;-83
2021/01/05 09:12:49;;;;;;;63.92;58.25;;;;;;;13.24;44.47;99468.97;4439760;32;33212;-81
2021/01/05 09:15:19;;;;;;;62.10;56.88;;;;;;;12.65;46.03;99473.38;4453747;32;35117;-83
2021/01/05 09:17:48;;;;;;;61.03;56.03;;;;;;;12.05;47.31;99474.16;4439982;32;34583;-82
2021/01/05 09:20:16;;;;;;;61.00;55.85;;;;;;;12.52;46.15;99471.31;4439584;32;33338;-82
2021/01/05 09:22:43;;;;;;;60.38;55.70;;;;;;;11.77;47.81;99466.56;4453675;32;33882;-83
2021/01/05 09:25:11;;;;;;;61.75;56.67;;;;;;;11.85;48.05;99473.16;4427287;32;33917;-81
2021/01/05 09:27:38;;;;;;;59.47;54.78;;;;;;;10.77;50.70;99471.19;4439703;32;35195;-82
2021/01/05 09:30:14;;;;;;;59.95;55.12;;;;;;;10.80;50.89;99476.31;4440299;32;34024;-83
2021/01/05 09:32:41;;;;;;;60.60;55.80;;;;;;;10.55;51.52;99482.41;4428452;32;33675;-81
2021/01/05 09:35:09;;;;;;;59.58;54.58;;;;;;;10.71;51.36;99481.88;4455120;32;34518;-81
2021/01/05 09:37:43;;;;;;;59.08;54.33;;;;;;;10.81;50.99;99486.69;4455173;32;33068;-82
2021/01/05 09:40:11;;;;;;;59.67;54.70;;;;;;;11.25;49.84;99487.69;4453597;32;33224;-83
2021/01/05 09:42:38;;;;;;;59.17;54.35;;;;;;;11.10;50.50;99487.38;4415287;32;34099;-82
2021/01/05 09:45:07;;;;;;;59.75;55.05;;;;;;;11.76;48.64;99491.81;4440219;32;33198;-83
2021/01/05 09:47:34;;;;;;;59.03;54.20;;;;;;;10.89;50.59;99499.44;4427130;32;34023;-82
2021/01/05 09:50:03;;;;;;;59.50;54.70;;;;;;;11.58;48.79;99509.06;4454043;32;34375;-82
2021/01/05 09:52:34;;;;;;;59.97;55.25;;;;;;;11.29;49.75;99503.19;4441213;32;33971;-81
2021/01/05 09:55:05;;;;;;;60.33;55.38;;;;;;;11.79;47.95;99496.06;4442504;32;33887;-84
2021/01/05 09:57:32;;;;;;;58.90;54.33;;;;;;;12.25;46.93;99499.44;4440328;32;33399;-81
2021/01/05 09:59:59;;;;;;;59.78;54.90;;;;;;;11.89;47.86;99499.16;4414505;32;32550;-82
2021/01/05 10:02:27;;;;;;;60.28;55.30;;;;;;;12.72;45.84;99498.31;4453385;32;34835;-84
2021/01/05 10:04:54;;;;;;;59.90;54.85;;;;;;;12.82;45.55;99493.56;4426668;32;34850;-81
2021/01/05 10:07:23;;;;;;;60.30;55.25;;;;;;;12.24;47.15;99495.12;4453504;32;33813;-82
2021/01/05 10:09:50;;;;;;;59.00;54.30;;;;;;;13.33;44.47;99499.09;4439472;32;33476;-84
2021/01/05 10:12:17;;;;;;;58.87;54.17;;;;;;;13.34;44.21;99500.81;4413998;32;34406;-83
2021/01/05 10:14:44;;;;;;;60.15;55.38;;;;;;;13.68;43.49;99494.88;4439009;32;34434;-82
2021/01/05 10:17:11;;;;;;;60.08;55.38;;;;;;;12.89;45.08;99505.44;4452915;32;33303;-84
2021/01/05 10:19:39;;;;;;;57.97;53.55;;;;;;;11.78;47.81;99496.97;4439812;32;34244;-82
2021/01/05 10:22:06;;;;;;;58.80;54.25;;;;;;;12.00;47.38;99487.38;4439761;32;33774;-82
2021/01/05 10:24:33;;;;;;;59.35;54.60;;;;;;;11.74;47.67;99488.44;4440065;32;35244;-81
2021/01/05 10:27:00;;;;;;;58.03;53.63;;;;;;;12.40;46.46;99487.50;4439868;32;34050;-83
2021/01/05 10:29:28;;;;;;;58.30;53.85;;;;;;;12.36;46.36;99488.53;4439476;32;32671;-82
2021/01/05 10:31:56;;;;;;;59.25;54.53;;;;;;;13.02;44.59;99496.13;4440431;32;33796;-82
2021/01/05 10:34:24;;;;;;;57.72;53.55;;;;;;;12.83;44.92;99485.63;4440452;32;33760;-81
2021/01/05 10:36:57;;;;;;;58.28;53.78;;;;;;;12.28;46.17;99488.00;4453004;32;33510;-82
2021/01/05 10:39:26;;;;;;;57.17;52.97;;;;;;;12.34;45.91;99493.00;4441724;32;33525;-83
2021/01/05 10:41:58;;;;;;;57.90;53.70;;;;;;;12.30;45.93;99491.44;4442704;32;34492;-82
2021/01/05 10:44:26;;;;;;;58.50;54.00;;;;;;;12.41;46.06;99483.97;4441106;32;34200;-82
2021/01/05 10:46:57;;;;;;;59.42;54.72;;;;;;;12.61;45.18;99490.94;4426792;32;34095;-83
2021/01/05 10:49:24;;;;;;;58.40;53.95;;;;;;;12.85;44.80;99486.41;4439550;32;33478;-83
2021/01/05 10:51:54;;;;;;;57.85;53.35;;;;;;;12.92;44.63;99489.59;4439706;32;33847;-83
2021/01/05 10:54:29;;;;;;;56.95;52.65;;;;;;;12.87;44.66;99486.34;4439392;32;33202;-83
2021/01/05 10:56:57;;;;;;;57.00;52.83;;;;;;;13.36;43.49;99485.91;4439507;32;33776;-82
2021/01/05 10:59:25;;;;;;;58.75;54.15;;;;;;;13.35;43.52;99486.81;4438940;32;33171;-83
2021/01/05 11:01:52;;;;;;;57.60;53.38;;;;;;;13.17;43.97;99489.31;4438793;32;35266;-83
2021/01/05 11:04:19;;;;;;;57.38;53.20;;;;;;;12.72;45.14;99493.09;4453413;32;33169;-83
2021/01/05 11:06:57;;;;;;;57.78;53.53;;;;;;;13.21;43.77;99487.44;4438392;32;33552;-82
2021/01/05 11:09:25;;;;;;;58.45;54.28;;;;;;;13.50;42.99;99496.56;4451308;32;34079;-82
2021/01/05 11:11:55;;;;;;;58.87;54.60;;;;;;;13.31;43.42;99495.72;4438390;32;34922;-83
2021/01/05 11:14:23;;;;;;;59.22;54.58;;;;;;;12.94;44.39;99493.00;4452816;32;33768;-81
2021/01/05 11:16:51;;;;;;;58.25;53.85;;;;;;;10.63;50.36;99492.56;4438656;32;35053;-83
2021/01/05 11:19:20;;;;;;;58.05;53.63;;;;;;;11.98;47.25;99485.78;4438658;32;33122;-83
2021/01/05 11:21:53;;;;;;;57.20;52.83;;;;;;;12.68;45.60;99492.41;4428455;32;34959;-81
2021/01/05 11:24:23;;;;;;;58.55;54.22;;;;;;;13.19;43.75;99492.75;4413875;32;34771;-82
2021/01/05 11:26:50;;;;;;;68.22;62.92;;;;;;;13.35;43.56;99498.13;4437815;32;33754;-83
2021/01/05 11:29:20;;;;;;;60.33;55.95;;;;;;;13.48;43.42;99494.94;4440343;32;32738;-81
2021/01/05 11:32:07;;;;;;;60.30;56.08;;;;;;;12.98;44.13;99510.25;4428097;32;34056;-83
2021/01/05 11:34:35;;;;;;;59.33;55.00;;;;;;;13.43;43.07;99505.66;4440249;32;35435;-83
2021/01/05 11:37:09;;;;;;;59.95;55.35;;;;;;;13.19;43.82;99507.59;4454647;32;34219;-82
2021/01/05 11:39:37;;;;;;;60.70;56.25;;;;;;;13.38;43.04;99504.19;4442473;32;34015;-85
2021/01/05 11:42:06;;;;;;;57.88;53.38;;;;;;;13.97;41.82;99500.47;4415484;32;34494;-85
2021/01/05 11:44:35;;;;;;;58.83;54.83;;;;;;;13.69;41.94;99488.72;4441280;32;33853;-84
2021/01/05 11:47:02;;;;;;;56.78;52.60;;;;;;;13.15;43.02;99498.19;4456715;32;34637;-82